Time;durP1;ratioP1;P1;durP2;ratioP2;P2;SDS_P1;SDS_P2;PMS_P1;PMS_P2;Temp;Humidity;BMP_temperature;BMP_pressure;BME280_temperature;BME280_humidity;BME280_pressure;Samples;Min_cycle;Max_cycle;Signal;HPM_P1;HPM_P2
2022/11/23 00:03:21;;;;;;;273.53;23.23;;;;;5.80;95014.00;;;;8432576;28;20199;-76
2022/11/23 00:07:24;;;;;;;93.53;17.43;;;;;5.80;95024.00;;;;8431732;28;20195;-77
2022/11/23 00:11:55;;;;;;;65.83;15.00;;;;;5.80;95023.00;;;;8431936;28;20194;-77
2022/11/23 00:15:58;;;;;;;110.20;17.03;;;;;5.80;95015.00;;;;8430720;28;20644;-76
2022/11/23 00:20:03;;;;;;;325.67;25.83;;;;;5.80;95013.00;;;;8431682;28;20234;-76
2022/11/23 00:24:06;;;;;;;187.97;21.27;;;;;5.80;95010.00;;;;8432593;28;20231;-78
2022/11/23 00:28:09;;;;;;;176.70;21.83;;;;;5.80;95018.00;;;;8432295;28;20218;-76
2022/11/23 00:32:12;;;;;;;124.53;18.73;;;;;5.80;95014.00;;;;8431406;28;20261;-76
2022/11/23 00:36:17;;;;;;;156.17;18.53;;;;;5.80;95007.00;;;;8432354;28;20541;-76
2022/11/23 00:40:20;;;;;;;445.73;30.23;;;;;5.80;95015.00;;;;8431190;28;20187;-76
2022/11/23 00:44:23;;;;;;;142.07;19.77;;;;;5.80;95015.00;;;;8430627;28;20703;-76
2022/11/23 00:48:26;;;;;;;115.97;17.67;;;;;5.80;95015.00;;;;8431131;28;20202;-76
2022/11/23 00:52:31;;;;;;;197.63;21.33;;;;;5.90;95017.00;;;;8431518;28;20199;-76
2022/11/23 00:56:39;;;;;;;121.93;19.73;;;;;5.90;95026.00;;;;8431600;28;20195;-76
2022/11/23 01:00:42;;;;;;;139.30;19.77;;;;;5.90;95017.00;;;;8431887;28;20618;-76
2022/11/23 01:04:45;;;;;;;171.87;20.07;;;;;5.90;95016.00;;;;8430494;28;20234;-77
2022/11/23 01:08:51;;;;;;;183.23;20.23;;;;;5.80;95014.00;;;;8431255;28;20191;-77
2022/11/23 01:12:54;;;;;;;177.40;20.33;;;;;5.80;95019.00;;;;8431052;28;20188;-77
2022/11/23 01:16:57;;;;;;;350.63;26.50;;;;;5.90;95019.00;;;;8431313;28;20575;-76
2022/11/23 01:21:34;;;;;;;361.27;26.37;;;;;5.90;95022.00;;;;8430661;28;20199;-77
2022/11/23 01:25:39;;;;;;;210.63;22.70;;;;;5.80;95017.00;;;;8433043;28;20275;-77
2022/11/23 01:29:42;;;;;;;156.27;20.23;;;;;5.80;95018.00;;;;8436684;28;20191;-77
2022/11/23 01:34:19;;;;;;;201.57;20.57;;;;;5.80;95023.00;;;;8438056;28;20207;-77
2022/11/23 01:38:22;;;;;;;179.70;19.67;;;;;5.80;95022.00;;;;8436353;28;20211;-77
2022/11/23 01:42:40;;;;;;;173.60;21.17;;;;;5.80;95030.00;;;;8437375;28;20202;-77
2022/11/23 01:46:43;;;;;;;399.60;29.37;;;;;5.80;95026.00;;;;8437523;28;20296;-76
2022/11/23 01:50:48;;;;;;;429.90;27.30;;;;;5.80;95035.00;;;;8437006;28;20218;-77
2022/11/23 01:54:54;;;;;;;304.47;25.10;;;;;5.80;95031.00;;;;8437777;28;20203;-76
2022/11/23 01:59:02;;;;;;;189.87;20.80;;;;;5.80;95038.00;;;;8436147;28;20242;-77
2022/11/23 02:03:07;;;;;;;387.60;28.17;;;;;5.80;95039.00;;;;8436107;28;20244;-77
2022/11/23 02:07:10;;;;;;;329.17;24.27;;;;;5.80;95043.00;;;;8436139;28;20727;-78
2022/11/23 02:11:15;;;;;;;194.77;20.17;;;;;5.80;95056.00;;;;8436090;28;20221;-78
2022/11/23 02:15:19;;;;;;;169.67;20.13;;;;;5.80;95059.00;;;;8435295;28;20199;-77
2022/11/23 02:19:33;;;;;;;319.47;26.77;;;;;5.80;95056.00;;;;8435610;28;20278;-78
2022/11/23 02:24:01;;;;;;;137.47;19.80;;;;;5.80;95062.00;;;;8435798;28;20191;-77
2022/11/23 02:28:06;;;;;;;259.33;22.93;;;;;5.80;95053.00;;;;8435232;28;20253;-77
2022/11/23 02:32:10;;;;;;;291.87;23.27;;;;;5.80;95056.00;;;;8436083;28;20506;-77
2022/11/23 02:36:38;;;;;;;184.43;20.93;;;;;5.80;95051.00;;;;8434490;28;20548;-78
2022/11/23 02:40:42;;;;;;;187.83;20.97;;;;;5.80;95058.00;;;;8435482;28;20199;-78
2022/11/23 02:44:51;;;;;;;163.53;20.37;;;;;5.80;95054.00;;;;8435114;28;20559;-77
2022/11/23 02:48:54;;;;;;;96.27;17.77;;;;;5.80;95052.00;;;;8434734;28;20184;-77
2022/11/23 02:52:57;;;;;;;299.77;24.73;;;;;5.80;95046.00;;;;8434332;28;20207;-78
2022/11/23 02:57:00;;;;;;;302.03;23.20;;;;;5.80;95048.00;;;;8435214;28;20196;-78
2022/11/23 03:01:05;;;;;;;217.13;21.53;;;;;5.80;95037.00;;;;8434339;28;20330;-78
2022/11/23 03:05:42;;;;;;;432.10;27.87;;;;;5.80;95035.00;;;;8434132;28;20230;-77
2022/11/23 03:09:45;;;;;;;221.27;20.50;;;;;5.80;95048.00;;;;8434546;28;20648;-77
2022/11/23 03:13:48;;;;;;;260.20;20.13;;;;;5.80;95054.00;;;;8434594;28;20191;-77
2022/11/23 03:18:26;;;;;;;363.07;22.83;;;;;5.70;95044.00;;;;8434395;28;20268;-77
2022/11/23 03:22:29;;;;;;;352.40;23.13;;;;;5.70;95059.00;;;;8433965;28;20199;-77
2022/11/23 03:27:07;;;;;;;254.37;18.90;;;;;5.60;95060.00;;;;8432798;28;20227;-77
2022/11/23 03:31:10;;;;;;;277.43;18.10;;;;;5.60;95061.00;;;;8431744;28;20198;-76
2022/11/23 03:35:15;;;;;;;445.23;25.40;;;;;5.60;95054.00;;;;8434140;28;20192;-76
2022/11/23 03:39:49;;;;;;;233.23;20.03;;;;;5.60;95069.00;;;;8432710;28;20199;-77
2022/11/23 03:43:53;;;;;;;298.30;19.17;;;;;5.60;95063.00;;;;8433221;28;20579;-76
2022/11/23 03:48:26;;;;;;;249.47;18.87;;;;;5.50;95059.00;;;;8432736;28;20226;-77
2022/11/23 03:52:31;;;;;;;408.40;25.73;;;;;5.50;95052.00;;;;8433155;28;20505;-77
2022/11/23 03:56:34;;;;;;;205.27;18.47;;;;;5.50;95049.00;;;;8432331;28;20589;-77
2022/11/23 04:00:37;;;;;;;348.93;24.27;;;;;5.50;95049.00;;;;8433209;28;20199;-77
2022/11/23 04:05:14;;;;;;;303.20;22.93;;;;;5.60;95047.00;;;;8431712;28;20192;-77
2022/11/23 04:09:52;;;;;;;137.23;17.63;;;;;5.50;95046.00;;;;8432251;28;20249;-76
2022/11/23 04:13:55;;;;;;;213.40;20.47;;;;;5.50;95052.00;;;;8431692;28;20219;-76
2022/11/23 04:18:32;;;;;;;221.70;20.27;;;;;5.50;95057.00;;;;8432370;28;20207;-76
2022/11/23 04:22:35;;;;;;;311.63;23.90;;;;;5.50;95063.00;;;;8431533;28;20202;-76
2022/11/23 04:26:40;;;;;;;370.70;26.07;;;;;5.50;95049.00;;;;8431765;28;20234;-77
2022/11/23 04:30:43;;;;;;;146.13;16.43;;;;;5.50;95046.00;;;;8431328;28;20244;-76
2022/11/23 04:35:18;;;;;;;174.13;19.70;;;;;5.40;95051.00;;;;8431862;28;20194;-76
2022/11/23 04:39:21;;;;;;;388.10;25.70;;;;;5.40;95051.00;;;;8431610;28;20202;-76
2022/11/23 04:43:26;;;;;;;234.90;20.00;;;;;5.50;95057.00;;;;8431575;28;20294;-77
2022/11/23 04:48:00;;;;;;;108.63;16.80;;;;;5.40;95041.00;;;;8431417;28;20222;-76
2022/11/23 04:52:04;;;;;;;318.03;23.57;;;;;5.40;95046.00;;;;8432142;28;20282;-76
2022/11/23 04:56:07;;;;;;;207.33;30.40;;;;;5.40;95053.00;;;;8430781;28;20290;-76
2022/11/23 05:00:18;;;;;;;226.67;22.07;;;;;5.40;95053.00;;;;8433390;28;20202;-76
2022/11/23 05:04:21;;;;;;;193.37;19.77;;;;;5.40;95049.00;;;;8438415;28;20206;-76
2022/11/23 05:08:24;;;;;;;263.77;19.00;;;;;5.40;95056.00;;;;8437984;28;20226;-76
2022/11/23 05:12:27;;;;;;;471.23;30.87;;;;;5.30;95051.00;;;;8437283;28;20202;-76
2022/11/23 05:17:04;;;;;;;231.37;20.77;;;;;5.30;95044.00;;;;8438556;28;20219;-76
2022/11/23 05:21:09;;;;;;;270.90;21.97;;;;;5.30;95043.00;;;;8438644;28;20199;-76
2022/11/23 05:25:12;;;;;;;458.97;27.80;;;;;5.40;95049.00;;;;8437574;28;20191;-75
2022/11/23 05:29:15;;;;;;;347.43;24.17;;;;;5.40;95043.00;;;;8436367;28;20218;-76
2022/11/23 05:33:52;;;;;;;212.83;19.10;;;;;5.50;95041.00;;;;8438211;28;20206;-76
2022/11/23 05:37:56;;;;;;;344.63;25.43;;;;;5.50;95043.00;;;;8435812;28;20187;-76
2022/11/23 05:41:59;;;;;;;357.17;25.67;;;;;5.50;95041.00;;;;8436334;28;20195;-76
2022/11/23 05:46:36;;;;;;;206.13;18.30;;;;;5.50;95039.00;;;;8436048;28;20215;-76
2022/11/23 05:50:39;;;;;;;350.03;26.10;;;;;5.50;95042.00;;;;8436501;28;20192;-76
2022/11/23 05:54:44;;;;;;;327.20;24.03;;;;;5.60;95041.00;;;;8436243;28;20233;-76
2022/11/23 05:58:47;;;;;;;183.30;17.93;;;;;5.60;95038.00;;;;8436767;28;20198;-76
2022/11/23 06:03:23;;;;;;;273.47;22.67;;;;;5.50;95041.00;;;;8435366;28;20518;-76
2022/11/23 06:07:27;;;;;;;166.63;17.90;;;;;5.60;95039.00;;;;8435464;28;20215;-76
2022/11/23 06:11:31;;;;;;;142.60;18.83;;;;;5.60;95037.00;;;;8434774;28;20274;-76
2022/11/23 06:15:35;;;;;;;213.33;22.93;;;;;5.60;95049.00;;;;8435845;28;20570;-75
2022/11/23 06:20:12;;;;;;;129.33;18.47;;;;;5.60;95043.00;;;;8429980;28;20195;-76
2022/11/23 06:24:15;;;;;;;356.63;24.93;;;;;5.60;95042.00;;;;8434565;28;20579;-76
2022/11/23 06:28:19;;;;;;;158.93;17.43;;;;;5.60;95048.00;;;;8433679;28;20227;-76
2022/11/23 06:32:23;;;;;;;244.80;21.20;;;;;5.50;95050.00;;;;8435334;28;20245;-76
2022/11/23 06:36:59;;;;;;;172.13;22.77;;;;;5.50;95063.00;;;;8432751;28;20192;-77
2022/11/23 06:41:03;;;;;;;226.67;21.90;;;;;5.50;95058.00;;;;8433847;28;20665;-77
2022/11/23 06:45:42;;;;;;;426.17;27.73;;;;;5.50;95071.00;;;;8432419;28;20225;-77
2022/11/23 06:50:16;;;;;;;148.00;19.47;;;;;5.40;95070.00;;;;8433036;28;20206;-76
2022/11/23 06:54:19;;;;;;;286.50;24.07;;;;;5.50;95070.00;;;;8434857;28;20207;-76
2022/11/23 06:58:56;;;;;;;136.93;18.73;;;;;5.50;95085.00;;;;8434634;28;20191;-75
2022/11/23 07:03:01;;;;;;;174.87;19.93;;;;;5.60;95071.00;;;;8433401;28;20187;-74
2022/11/23 07:07:04;;;;;;;156.90;18.77;;;;;5.70;95070.00;;;;8434004;28;20220;-75
2022/11/23 07:11:08;;;;;;;285.40;23.43;;;;;5.70;95072.00;;;;8434149;28;20191;-74
2022/11/23 07:15:12;;;;;;;192.20;19.60;;;;;5.70;95083.00;;;;8432765;28;20252;-74
2022/11/23 07:19:48;;;;;;;333.93;24.73;;;;;5.80;95082.00;;;;8433655;28;20195;-74
2022/11/23 07:23:51;;;;;;;314.30;24.60;;;;;5.80;95091.00;;;;8432568;28;20195;-74
2022/11/23 07:28:28;;;;;;;312.23;23.77;;;;;5.80;95096.00;;;;8433008;28;20219;-74
2022/11/23 07:32:31;;;;;;;328.47;24.27;;;;;5.90;95110.00;;;;8433399;28;20621;-74
2022/11/23 07:37:09;;;;;;;219.63;20.90;;;;;5.90;95103.00;;;;8432871;28;20203;-75
2022/11/23 07:41:12;;;;;;;427.37;29.03;;;;;5.90;95104.00;;;;8432954;28;20198;-76
2022/11/23 07:45:15;;;;;;;306.47;25.13;;;;;6.00;95112.00;;;;8433823;28;20640;-76
2022/11/23 07:49:19;;;;;;;201.47;21.17;;;;;6.00;95121.00;;;;8432483;28;20223;-75
2022/11/23 07:53:26;;;;;;;143.20;17.83;;;;;6.10;95122.00;;;;8433047;28;20299;-76
2022/11/23 07:57:29;;;;;;;326.17;25.60;;;;;6.10;95121.00;;;;8432192;28;20262;-76
2022/11/23 08:01:32;;;;;;;269.40;24.47;;;;;6.20;95118.00;;;;8432837;28;20636;-76
2022/11/23 08:05:35;;;;;;;144.30;17.90;;;;;6.20;95128.00;;;;8433055;28;20199;-76
2022/11/23 08:09:40;;;;;;;138.47;19.33;;;;;6.20;95129.00;;;;8430509;28;20661;-76
2022/11/23 08:13:44;;;;;;;105.83;17.73;;;;;6.30;95122.00;;;;8431618;28;20248;-77
2022/11/23 08:18:21;;;;;;;195.00;21.33;;;;;6.30;95122.00;;;;8430771;28;20633;-74
2022/11/23 08:22:25;;;;;;;146.00;21.30;;;;;6.40;95130.00;;;;8431812;28;20229;-75
2022/11/23 08:27:01;;;;;;;83.70;18.60;;;;;6.60;95129.00;;;;8431197;28;20207;-73
2022/11/23 08:31:06;;;;;;;74.83;16.63;;;;;6.70;95131.00;;;;8431114;28;20241;-74
2022/11/23 08:35:41;;;;;;;91.33;21.07;;;;;6.60;95132.00;;;;8428227;28;20199;-74
2022/11/23 08:39:44;;;;;;;215.13;25.37;;;;;6.80;95131.00;;;;8430343;28;20191;-74
2022/11/23 08:43:49;;;;;;;144.00;21.80;;;;;6.90;95129.00;;;;8431419;28;20188;-76
2022/11/23 08:47:53;;;;;;;92.40;21.00;;;;;6.90;95131.00;;;;8430900;28;20231;-75
2022/11/23 08:51:56;;;;;;;95.90;21.50;;;;;7.00;95133.00;;;;8428749;28;20203;-76
2022/11/23 08:56:01;;;;;;;66.97;19.77;;;;;7.20;95147.00;;;;8430982;28;20260;-77
2022/11/23 09:00:07;;;;;;;69.40;21.20;;;;;7.20;95144.00;;;;8431827;28;20210;-76
2022/11/23 09:04:40;;;;;;;74.60;21.80;;;;;7.30;95141.00;;;;8430863;28;20195;-76
2022/11/23 09:08:43;;;;;;;57.60;20.10;;;;;7.50;95143.00;;;;8429938;28;20295;-76
2022/11/23 09:13:21;;;;;;;51.80;18.97;;;;;7.50;95149.00;;;;8431233;28;20584;-76
2022/11/23 09:17:25;;;;;;;64.13;19.47;;;;;7.50;95139.00;;;;8430465;28;20256;-76
2022/11/23 09:21:32;;;;;;;52.67;19.03;;;;;7.60;95152.00;;;;8430489;28;20192;-76
2022/11/23 09:26:02;;;;;;;54.58;19.92;;;;;7.70;95144.00;;;;8432082;28;20682;-76
2022/11/23 09:30:39;;;;;;;66.13;21.27;;;;;7.70;95150.00;;;;8430111;28;20223;-75
2022/11/23 09:34:44;;;;;;;60.87;19.90;;;;;7.80;95146.00;;;;8430634;28;20203;-75
2022/11/23 09:38:47;;;;;;;51.17;19.70;;;;;7.90;95137.00;;;;8430307;28;20195;-75
2022/11/23 09:43:16;;;;;;;57.80;20.13;;;;;7.90;95133.00;;;;8430680;28;20567;-75
2022/11/23 09:47:35;;;;;;;49.37;18.93;;;;;8.00;95131.00;;;;8432828;28;20223;-75
2022/11/23 09:51:42;;;;;;;48.40;20.03;;;;;8.10;95132.00;;;;8433691;28;20203;-76
2022/11/23 09:56:12;;;;;;;51.17;19.17;;;;;8.30;95137.00;;;;8436763;28;20179;-76
2022/11/23 10:00:20;;;;;;;47.50;20.25;;;;;8.60;95135.00;;;;8435943;28;20195;-76
2022/11/23 10:04:24;;;;;;;53.03;20.27;;;;;8.70;95132.00;;;;8436317;28;20644;-76
2022/11/23 10:08:58;;;;;;;52.50;21.23;;;;;8.90;95133.00;;;;8436189;28;20245;-76
2022/11/23 10:13:18;;;;;;;46.42;18.83;;;;;9.00;95135.00;;;;8435957;28;20234;-76
2022/11/23 10:17:31;;;;;;;48.55;21.17;;;;;9.10;95130.00;;;;8435501;28;20191;-76
2022/11/23 10:22:04;;;;;;;47.20;20.33;;;;;9.10;95124.00;;;;8436655;28;20191;-76
2022/11/23 10:26:12;;;;;;;47.20;20.53;;;;;9.10;95117.00;;;;8434654;28;20219;-76
2022/11/23 10:30:19;;;;;;;47.83;20.10;;;;;9.10;95118.00;;;;8435394;28;20223;-76
2022/11/23 10:34:56;;;;;;;47.40;20.63;;;;;9.10;95121.00;;;;8436116;28;20225;-76
2022/11/23 10:39:01;;;;;;;38.80;19.63;;;;;9.10;95114.00;;;;8434749;28;20206;-75
2022/11/23 10:43:38;;;;;;;45.03;21.45;;;;;9.00;95112.00;;;;8435121;28;20241;-75
2022/11/23 10:48:31;;;;;;;43.10;19.98;;;;;9.00;95112.00;;;;8435397;28;20215;-75
2022/11/23 10:52:36;;;;;;;49.57;20.43;;;;;9.10;95118.00;;;;8434407;28;20242;-75
2022/11/23 10:57:21;;;;;;;36.90;19.65;;;;;9.10;95110.00;;;;8435042;28;20567;-75
2022/11/23 11:01:26;;;;;;;38.42;19.33;;;;;9.10;95106.00;;;;8434623;28;20249;-75
2022/11/23 11:06:02;;;;;;;43.40;20.08;;;;;9.00;95103.00;;;;8434231;28;20230;-75
2022/11/23 11:10:37;;;;;;;42.17;21.02;;;;;9.00;95100.00;;;;8433971;28;20568;-76
2022/11/23 11:15:08;;;;;;;44.78;20.17;;;;;9.00;95097.00;;;;8434067;28;20260;-76
2022/11/23 11:19:28;;;;;;;41.05;19.77;;;;;9.10;95087.00;;;;8434613;28;20248;-76
2022/11/23 11:23:58;;;;;;;33.78;17.75;;;;;9.20;95087.00;;;;8433280;28;20193;-76
2022/11/23 11:28:06;;;;;;;41.20;19.70;;;;;9.30;95096.00;;;;8433181;28;20556;-75
2022/11/23 11:32:37;;;;;;;31.23;17.88;;;;;9.30;95096.00;;;;8433960;28;20501;-75
2022/11/23 11:36:46;;;;;;;35.13;18.77;;;;;9.40;95082.00;;;;8432001;28;20201;-75
2022/11/23 11:41:23;;;;;;;35.92;18.70;;;;;9.40;95087.00;;;;8433352;28;20195;-76
2022/11/23 11:45:32;;;;;;;39.35;18.67;;;;;9.40;95087.00;;;;8433219;28;20200;-76
2022/11/23 11:50:02;;;;;;;34.08;17.98;;;;;9.50;95089.00;;;;8433008;28;20215;-76
2022/11/23 11:54:13;;;;;;;33.05;17.58;;;;;9.50;95090.00;;;;8432149;28;20249;-76
2022/11/23 11:58:17;;;;;;;35.17;17.95;;;;;9.50;95082.00;;;;8431795;28;20248;-76
2022/11/23 12:02:59;;;;;;;32.30;16.33;;;;;9.50;95077.00;;;;8432400;28;20207;-77
2022/11/23 12:07:08;;;;;;;28.48;15.85;;;;;9.50;95078.00;;;;8431978;28;20528;-76
2022/11/23 12:11:13;;;;;;;28.02;15.82;;;;;9.40;95070.00;;;;8431569;28;20326;-75
2022/11/23 12:15:50;;;;;;;30.73;16.05;;;;;9.40;95076.00;;;;8432788;28;20196;-75
2022/11/23 12:20:05;;;;;;;31.58;16.48;;;;;9.30;95073.00;;;;8431729;28;20537;-75
2022/11/23 12:24:36;;;;;;;26.23;15.68;;;;;9.40;95066.00;;;;8430734;28;20217;-75
2022/11/23 12:29:07;;;;;;;25.40;15.82;;;;;9.40;95072.00;;;;8432554;28;20226;-75
2022/11/23 12:33:31;;;;;;;28.80;15.35;;;;;9.50;95069.00;;;;8431345;28;20244;-75
2022/11/23 12:38:06;;;;;;;19.05;12.52;;;;;9.60;95069.00;;;;8431390;28;20282;-77
2022/11/23 12:42:16;;;;;;;22.25;11.95;;;;;9.70;95075.00;;;;8431687;28;20196;-77
2022/11/23 12:46:46;;;;;;;22.92;12.32;;;;;9.80;95065.00;;;;8431528;28;20195;-77
2022/11/23 12:51:00;;;;;;;21.38;12.75;;;;;9.90;95058.00;;;;8431329;28;20222;-77
2022/11/23 12:55:15;;;;;;;23.85;12.32;;;;;10.00;95044.00;;;;8432288;28;20240;-77
2022/11/23 12:59:25;;;;;;;19.02;12.70;;;;;10.00;95044.00;;;;8430681;28;20186;-77
2022/11/23 13:04:00;;;;;;;21.05;13.57;;;;;9.90;95044.00;;;;8430749;28;20244;-77
2022/11/23 13:08:19;;;;;;;27.70;13.93;;;;;9.70;95051.00;;;;8431139;28;20198;-77
2022/11/23 13:12:41;;;;;;;22.30;13.18;;;;;9.60;95050.00;;;;8430625;28;20184;-77
2022/11/23 13:17:13;;;;;;;21.92;11.63;;;;;9.50;95045.00;;;;8430282;28;20237;-77
2022/11/23 13:21:28;;;;;;;19.30;11.00;;;;;9.60;95054.00;;;;8432297;28;20189;-77
2022/11/23 13:25:31;;;;;;;22.38;11.13;;;;;9.70;95049.00;;;;8437041;28;20192;-76
2022/11/23 13:30:10;;;;;;;17.33;9.95;;;;;9.70;95052.00;;;;8436607;28;20275;-77
2022/11/23 13:34:44;;;;;;;17.63;10.27;;;;;9.70;95056.00;;;;8438178;28;20649;-77
2022/11/23 13:38:47;;;;;;;22.27;10.10;;;;;9.60;95065.00;;;;8436856;28;20197;-76
2022/11/23 13:42:51;;;;;;;17.95;9.77;;;;;9.60;95055.00;;;;8438052;28;20229;-76
2022/11/23 13:47:03;;;;;;;17.48;9.45;;;;;9.50;95053.00;;;;8436665;28;20185;-77
2022/11/23 13:51:06;;;;;;;19.20;10.35;;;;;9.40;95046.00;;;;8436616;28;20215;-76
2022/11/23 13:55:43;;;;;;;15.23;9.45;;;;;9.20;95044.00;;;;8435241;28;20791;-77
2022/11/23 13:59:46;;;;;;;13.07;9.30;;;;;9.00;95044.00;;;;8436390;28;20197;-76
2022/11/23 14:03:55;;;;;;;16.13;10.45;;;;;9.00;95045.00;;;;8432390;28;20191;-76
2022/11/23 14:08:02;;;;;;;15.35;10.00;;;;;9.10;95045.00;;;;8433631;28;20222;-77
2022/11/23 14:12:20;;;;;;;16.08;10.07;;;;;9.10;95037.00;;;;8435205;28;20607;-76
2022/11/23 14:16:43;;;;;;;19.85;10.93;;;;;9.10;95042.00;;;;8435439;28;20610;-75
2022/11/23 14:21:15;;;;;;;23.95;12.13;;;;;8.90;95036.00;;;;8435950;28;20628;-76
2022/11/23 14:25:38;;;;;;;19.20;11.10;;;;;8.70;95042.00;;;;8429365;28;20195;-75
2022/11/23 14:30:06;;;;;;;23.55;12.45;;;;;8.50;95043.00;;;;8435123;28;20299;-76
2022/11/23 14:34:19;;;;;;;25.27;12.27;;;;;8.40;95045.00;;;;8434473;28;20249;-76
2022/11/23 14:38:51;;;;;;;24.87;14.70;;;;;8.20;95045.00;;;;8434484;28;20206;-81
2022/11/23 14:43:03;;;;;;;29.50;13.27;;;;;8.10;95042.00;;;;8433075;28;20272;-78
2022/11/23 14:47:08;;;;;;;23.92;12.50;;;;;8.00;95038.00;;;;8435995;28;20632;-76
2022/11/23 14:51:43;;;;;;;26.92;13.65;;;;;7.80;95043.00;;;;8438610;28;20227;-77
2022/11/23 14:55:49;;;;;;;26.85;13.77;;;;;7.70;95041.00;;;;8434719;28;20633;-77
2022/11/23 14:59:55;;;;;;;27.47;15.60;;;;;7.60;95040.00;;;;8433060;28;20187;-77
2022/11/23 15:04:33;;;;;;;31.13;15.00;;;;;7.40;95035.00;;;;8434358;28;20258;-76
2022/11/23 15:08:45;;;;;;;34.70;15.35;;;;;7.20;95031.00;;;;8433245;28;20230;-76
2022/11/23 15:12:50;;;;;;;32.10;16.53;;;;;7.20;95036.00;;;;8434746;28;20317;-77
2022/11/23 15:17:23;;;;;;;42.10;19.53;;;;;7.20;95039.00;;;;8433459;28;20586;-77
2022/11/23 15:21:28;;;;;;;55.70;26.40;;;;;7.20;95034.00;;;;8433686;28;20192;-76
2022/11/23 15:26:03;;;;;;;43.37;22.03;;;;;7.20;95051.00;;;;8433681;28;20221;-78
2022/11/23 15:30:19;;;;;;;49.67;21.17;;;;;7.30;95054.00;;;;8433019;28;20277;-78
2022/11/23 15:34:45;;;;;;;31.80;17.17;;;;;7.40;95059.00;;;;8433098;28;20199;-86
2022/11/23 15:38:49;;;;;;;30.10;16.27;;;;;7.40;95054.00;;;;8434579;28;20195;-84
2022/11/23 15:43:23;;;;;;;35.10;18.45;;;;;7.50;95057.00;;;;8431183;28;20273;-83
2022/11/23 15:48:00;;;;;;;138.33;80.93;;;;;7.50;95069.00;;;;8432794;28;20195;-85
2022/11/23 15:52:04;;;;;;;98.13;42.05;;;;;7.50;95060.00;;;;8432745;28;20215;-84
2022/11/23 15:56:23;;;;;;;52.10;26.13;;;;;7.60;95062.00;;;;8432620;28;20249;-87
2022/11/23 16:00:26;;;;;;;44.63;21.83;;;;;7.60;95062.00;;;;8431776;28;20244;-87
2022/11/23 16:05:05;;;;;;;117.03;43.67;;;;;7.60;95064.00;;;;8432666;28;20192;-88
2022/11/23 16:09:35;;;;;;;49.23;22.30;;;;;7.60;95075.00;;;;8431916;28;20195;-88
2022/11/23 16:14:11;;;;;;;47.93;22.07;;;;;7.60;95071.00;;;;8432583;28;20673;-87
2022/11/23 16:18:23;;;;;;;37.03;19.53;;;;;7.70;95074.00;;;;8432201;28;20575;-87
2022/11/23 16:22:52;;;;;;;37.20;19.00;;;;;7.70;95076.00;;;;8431914;28;20192;-87
2022/11/23 16:26:57;;;;;;;27.57;15.70;;;;;7.70;95069.00;;;;8430794;28;20220;-85
2022/11/23 16:31:36;;;;;;;35.80;18.70;;;;;7.60;95063.00;;;;8432483;28;20302;-84
2022/11/23 16:36:10;;;;;;;50.65;24.95;;;;;7.60;95058.00;;;;8427918;28;20482;-85
2022/11/23 16:40:48;;;;;;;76.13;44.27;;;;;7.50;95060.00;;;;8431420;28;20210;-87
2022/11/23 16:45:23;;;;;;;60.50;36.20;;;;;7.50;95060.00;;;;8430415;28;20187;-83
2022/11/23 16:49:32;;;;;;;73.80;37.10;;;;;7.50;95051.00;;;;8432008;28;20560;-79
2022/11/23 16:53:36;;;;;;;47.47;26.30;;;;;7.50;95050.00;;;;8431740;28;20246;-82
2022/11/23 16:58:15;;;;;;;45.17;23.30;;;;;7.50;95048.00;;;;8430468;28;20191;-82
2022/11/23 17:02:47;;;;;;;40.30;20.10;;;;;7.50;95056.00;;;;8431647;28;20514;-80
2022/11/23 17:07:21;;;;;;;41.50;20.83;;;;;7.40;95051.00;;;;8430796;28;20238;-81
2022/11/23 17:11:58;;;;;;;41.63;21.20;;;;;7.50;95061.00;;;;8430358;28;20595;-79
2022/11/23 17:16:01;;;;;;;48.93;25.07;;;;;7.50;95055.00;;;;8431057;28;20191;-78
2022/11/23 17:20:10;;;;;;;47.90;24.13;;;;;7.50;95062.00;;;;8430739;28;20192;-79
2022/11/23 17:24:13;;;;;;;36.60;18.33;;;;;7.50;95058.00;;;;8430369;28;20225;-82
2022/11/23 17:28:20;;;;;;;46.93;23.97;;;;;7.50;95058.00;;;;8431198;28;20244;-79
2022/11/23 17:32:23;;;;;;;45.23;18.83;;;;;7.50;95060.00;;;;8430037;28;20343;-80
2022/11/23 17:36:30;;;;;;;44.20;19.40;;;;;7.40;95076.00;;;;8429684;28;20199;-80
2022/11/23 17:40:34;;;;;;;51.90;21.80;;;;;7.40;95068.00;;;;8431001;28;20567;-80
2022/11/23 17:44:37;;;;;;;49.00;19.93;;;;;7.40;95074.00;;;;8429013;28;20518;-78
2022/11/23 17:48:40;;;;;;;43.07;19.93;;;;;7.40;95074.00;;;;8429971;28;20241;-78
2022/11/23 17:52:45;;;;;;;69.27;35.20;;;;;7.30;95078.00;;;;8427211;28;20291;-78
2022/11/23 17:57:21;;;;;;;43.43;19.23;;;;;7.30;95081.00;;;;8427309;28;20226;-81
2022/11/23 18:01:55;;;;;;;40.37;19.33;;;;;7.20;95083.00;;;;8429088;28;20192;-83
2022/11/23 18:06:32;;;;;;;44.55;19.90;;;;;7.20;95089.00;;;;8430203;28;20188;-81
2022/11/23 18:11:10;;;;;;;48.43;18.73;;;;;7.20;95101.00;;;;8434232;28;20227;-81
2022/11/23 18:15:44;;;;;;;40.03;18.20;;;;;7.20;95099.00;;;;8435484;28;20196;-81
2022/11/23 18:20:21;;;;;;;49.27;17.77;;;;;7.10;95106.00;;;;8435671;28;20286;-80
2022/11/23 18:24:58;;;;;;;44.17;18.23;;;;;7.10;95112.00;;;;8435474;28;20587;-80
2022/11/23 18:29:39;;;;;;;45.47;18.93;;;;;7.10;95117.00;;;;8435779;28;20247;-83
2022/11/23 18:34:12;;;;;;;47.40;19.60;;;;;7.10;95115.00;;;;8435817;28;20245;-82
2022/11/23 18:38:49;;;;;;;40.60;17.30;;;;;7.10;95121.00;;;;8434509;28;20241;-76
2022/11/23 18:43:26;;;;;;;42.47;17.60;;;;;7.10;95118.00;;;;8434884;28;20192;-79
2022/11/23 18:48:06;;;;;;;41.30;17.20;;;;;7.00;95127.00;;;;8434971;28;20187;-77
2022/11/23 18:52:40;;;;;;;39.27;16.40;;;;;7.10;95121.00;;;;8435055;28;20223;-76
2022/11/23 18:57:17;;;;;;;42.50;18.37;;;;;7.00;95121.00;;;;8435140;28;20214;-77
2022/11/23 19:01:52;;;;;;;44.97;18.57;;;;;7.00;95125.00;;;;8434807;28;20209;-76
2022/11/23 19:06:29;;;;;;;43.78;18.40;;;;;7.00;95124.00;;;;8434633;28;20206;-76
2022/11/23 19:11:07;;;;;;;41.97;16.73;;;;;7.00;95133.00;;;;8434072;28;20292;-77
2022/11/23 19:15:41;;;;;;;54.73;20.00;;;;;7.00;95147.00;;;;8433156;28;20240;-79
2022/11/23 19:20:22;;;;;;;44.57;19.23;;;;;7.00;95143.00;;;;8433900;28;20529;-79
2022/11/23 19:24:56;;;;;;;48.78;18.55;;;;;7.10;95149.00;;;;8431570;28;20192;-80
2022/11/23 19:29:34;;;;;;;55.07;18.37;;;;;7.00;95151.00;;;;8433661;28;20241;-78
2022/11/23 19:34:09;;;;;;;57.00;19.53;;;;;6.90;95165.00;;;;8433211;28;20310;-79
2022/11/23 19:38:46;;;;;;;51.93;19.53;;;;;6.90;95162.00;;;;8434103;28;20240;-81
2022/11/23 19:43:20;;;;;;;51.60;19.70;;;;;6.90;95174.00;;;;8432567;28;20537;-79
2022/11/23 19:47:59;;;;;;;40.63;17.17;;;;;6.80;95176.00;;;;8425151;28;20218;-79
2022/11/23 19:52:36;;;;;;;50.33;17.43;;;;;6.80;95181.00;;;;8433780;28;20223;-78
2022/11/23 19:57:11;;;;;;;43.63;16.97;;;;;6.80;95195.00;;;;8433206;28;20199;-79
2022/11/23 20:01:46;;;;;;;43.40;17.73;;;;;6.80;95196.00;;;;8430261;28;20608;-79
2022/11/23 20:06:20;;;;;;;51.97;18.57;;;;;6.80;95203.00;;;;8432059;28;20191;-79
2022/11/23 20:11:05;;;;;;;45.07;16.90;;;;;6.80;95210.00;;;;8431814;28;20199;-79
2022/11/23 20:15:33;;;;;;;47.87;18.03;;;;;6.80;95218.00;;;;8431886;28;20262;-80
2022/11/23 20:20:09;;;;;;;50.97;18.00;;;;;6.80;95220.00;;;;8431194;28;20278;-79
2022/11/23 20:24:43;;;;;;;51.37;17.90;;;;;6.90;95222.00;;;;8432793;28;20199;-79
2022/11/23 20:29:21;;;;;;;52.70;18.47;;;;;6.80;95225.00;;;;8430826;28;20264;-80
2022/11/23 20:33:55;;;;;;;49.03;18.63;;;;;6.90;95227.00;;;;8431087;28;20272;-79
2022/11/23 20:38:35;;;;;;;54.20;19.30;;;;;6.80;95231.00;;;;8432125;28;20227;-79
2022/11/23 20:43:10;;;;;;;61.77;19.93;;;;;6.90;95244.00;;;;8431532;28;20572;-79
2022/11/23 20:47:52;;;;;;;60.43;19.10;;;;;6.90;95246.00;;;;8431572;28;20184;-78
2022/11/23 20:52:23;;;;;;;48.67;18.93;;;;;6.90;95259.00;;;;8431507;28;20219;-79
2022/11/23 20:56:27;;;;;;;51.17;17.87;;;;;6.90;95271.00;;;;8431307;28;20245;-79
2022/11/23 21:01:04;;;;;;;45.13;17.20;;;;;6.90;95275.00;;;;8430932;28;20195;-78
2022/11/23 21:05:43;;;;;;;50.70;17.33;;;;;6.90;95272.00;;;;8431668;28;20213;-77
2022/11/23 21:14:55;;;;;;;41.93;17.10;;;;;6.90;95292.00;;;;8432068;28;20228;-79